Time;durP1;ratioP1;P1;durP2;ratioP2;P2;SDS_P1;SDS_P2;PMS_P1;PMS_P2;Temp;Humidity;BMP_temperature;BMP_pressure;BME280_temperature;BME280_humidity;BME280_pressure;Samples;Min_cycle;Max_cycle;Signal;HPM_P1;HPM_P2
2021/09/25 00:00:50;;;;;;;;;;;;;;;19.77;50.75;100724.25;5015520;28;1377;-70
2021/09/25 00:03:16;;;;;;;;;;;;;;;19.41;51.05;100726.63;5015816;28;1359;-70
2021/09/25 00:05:43;;;;;;;;;;;;;;;19.05;50.81;100730.59;5016003;28;1906;-70
2021/09/25 00:08:09;;;;;;;;;;;;;;;18.86;50.36;100724.97;5015328;28;1367;-69
2021/09/25 00:10:34;;;;;;;;;;;;;;;18.79;50.19;100730.81;5015814;28;1465;-69
2021/09/25 00:13:00;;;;;;;;;;;;;;;18.73;51.31;100726.47;5035267;28;1120;-69
2021/09/25 00:15:25;;;;;;;;;;;;;;;18.85;51.88;100726.09;5031331;28;1382;-69
2021/09/25 00:17:51;;;;;;;;;;;;;;;18.87;52.12;100731.31;5015911;28;596;-69
2021/09/25 00:20:17;;;;;;;;;;;;;;;18.95;52.33;100733.47;5015655;28;1462;-70
2021/09/25 00:22:42;;;;;;;;;;;;;;;19.10;52.05;100735.25;5020019;28;1061;-70
2021/09/25 00:25:08;;;;;;;;;;;;;;;18.96;52.93;100740.63;5015250;28;1402;-70
2021/09/25 00:27:33;;;;;;;;;;;;;;;19.24;52.90;100747.22;5014905;28;1914;-70
2021/09/25 00:29:59;;;;;;;;;;;;;;;19.61;52.09;100742.09;5015414;28;1300;-69
2021/09/25 00:32:24;;;;;;;;;;;;;;;19.81;51.39;100739.13;5015149;28;1421;-70
2021/09/25 00:34:50;;;;;;;;;;;;;;;19.63;51.83;100748.97;5015872;28;1395;-70
2021/09/25 00:37:15;;;;;;;;;;;;;;;19.51;52.07;100745.81;5015152;28;1311;-69
2021/09/25 00:39:41;;;;;;;;;;;;;;;19.08;53.13;100749.31;5015343;28;1336;-69
2021/09/25 00:42:06;;;;;;;;;;;;;;;19.04;52.90;100748.25;5015010;28;1362;-69
2021/09/25 00:44:31;;;;;;;;;;;;;;;18.98;53.50;100752.16;5014964;28;1415;-69
2021/09/25 00:46:58;;;;;;;;;;;;;;;19.28;52.77;100753.78;5015246;28;2001;-69
2021/09/25 00:49:23;;;;;;;;;;;;;;;19.38;52.49;100752.84;5015829;28;1335;-69
2021/09/25 00:51:49;;;;;;;;;;;;;;;19.59;51.87;100758.94;5020972;28;1016;-70
2021/09/25 00:54:14;;;;;;;;;;;;;;;19.54;51.65;100755.44;5026683;28;1373;-70
2021/09/25 00:56:40;;;;;;;;;;;;;;;19.59;51.88;100758.13;5015445;28;895;-70
2021/09/25 00:59:06;;;;;;;;;;;;;;;19.82;50.98;100767.53;5014815;28;1387;-69
2021/09/25 01:01:31;;;;;;;;;;;;;;;19.60;51.50;100766.13;4997301;28;1020;-69
2021/09/25 01:03:57;;;;;;;;;;;;;;;19.60;51.50;100773.56;5015259;28;831;-69
2021/09/25 01:06:22;;;;;;;;;;;;;;;19.57;51.51;100772.22;5015845;28;1894;-70
2021/09/25 01:08:47;;;;;;;;;;;;;;;19.61;51.68;100769.69;5028376;28;1417;-70
2021/09/25 01:11:13;;;;;;;;;;;;;;;19.69;51.34;100774.56;5015202;28;1068;-69
2021/09/25 01:13:38;;;;;;;;;;;;;;;19.71;51.28;100779.78;4996972;28;773;-70
2021/09/25 01:16:04;;;;;;;;;;;;;;;19.72;51.02;100782.22;5015379;28;871;-69
2021/09/25 01:18:29;;;;;;;;;;;;;;;19.78;50.88;100783.84;5014847;28;1372;-70
2021/09/25 01:20:55;;;;;;;;;;;;;;;19.77;51.03;100793.22;5014298;28;785;-69
2021/09/25 01:23:20;;;;;;;;;;;;;;;19.72;51.15;100796.03;5014172;28;1028;-69
2021/09/25 01:25:45;;;;;;;;;;;;;;;19.57;51.44;100794.28;5014815;28;1992;-69
2021/09/25 01:28:11;;;;;;;;;;;;;;;19.72;51.14;100796.03;5014864;28;825;-70
2021/09/25 01:30:36;;;;;;;;;;;;;;;19.62;51.33;100798.91;5014741;28;808;-70
2021/09/25 01:33:02;;;;;;;;;;;;;;;19.85;50.87;100800.03;5014699;28;841;-70
2021/09/25 01:35:27;;;;;;;;;;;;;;;19.74;51.16;100799.31;5014076;28;602;-69
2021/09/25 01:37:53;;;;;;;;;;;;;;;19.72;51.23;100806.25;5014137;28;1107;-69
2021/09/25 01:40:18;;;;;;;;;;;;;;;19.87;50.59;100805.28;5014639;28;824;-70
2021/09/25 01:42:44;;;;;;;;;;;;;;;19.81;50.88;100810.00;5014112;28;888;-69
2021/09/25 01:45:09;;;;;;;;;;;;;;;19.86;50.91;100807.19;5014920;28;845;-70
2021/09/25 01:47:35;;;;;;;;;;;;;;;19.86;50.67;100812.72;5014737;28;1981;-70
2021/09/25 01:50:01;;;;;;;;;;;;;;;19.83;50.83;100822.41;5013847;28;1450;-69
2021/09/25 01:52:27;;;;;;;;;;;;;;;19.78;51.14;100827.97;5025947;28;1035;-69
2021/09/25 01:54:52;;;;;;;;;;;;;;;19.82;50.94;100822.69;5033872;28;808;-69
2021/09/25 01:57:18;;;;;;;;;;;;;;;19.68;51.29;100833.59;5033980;28;781;-69
2021/09/25 01:59:43;;;;;;;;;;;;;;;19.78;50.97;100833.50;5034525;28;792;-69
2021/09/25 02:02:09;;;;;;;;;;;;;;;19.84;50.85;100831.53;5034197;28;729;-70
2021/09/25 02:04:34;;;;;;;;;;;;;;;19.85;50.71;100832.34;5033793;28;768;-69
2021/09/25 02:06:59;;;;;;;;;;;;;;;19.68;51.44;100839.09;5008184;28;2001;-69
2021/09/25 02:09:25;;;;;;;;;;;;;;;19.70;51.28;100831.38;5014023;28;828;-70
2021/09/25 02:11:50;;;;;;;;;;;;;;;19.78;51.05;100833.50;5013530;28;1031;-70
2021/09/25 02:14:16;;;;;;;;;;;;;;;19.72;51.07;100837.41;5014078;28;1201;-69
2021/09/25 02:16:41;;;;;;;;;;;;;;;19.83;50.64;100841.72;5014402;28;840;-69
2021/09/25 02:19:07;;;;;;;;;;;;;;;19.86;50.78;100845.03;5014999;28;749;-69
2021/09/25 02:21:32;;;;;;;;;;;;;;;20.03;50.40;100845.34;5014003;28;1007;-70
2021/09/25 02:23:57;;;;;;;;;;;;;;;19.94;50.52;100847.13;4996335;28;736;-70
2021/09/25 02:26:23;;;;;;;;;;;;;;;19.97;50.33;100854.81;5014534;28;1910;-70
2021/09/25 02:28:48;;;;;;;;;;;;;;;19.78;50.85;100854.72;5014298;28;823;-70
2021/09/25 02:31:14;;;;;;;;;;;;;;;19.95;50.45;100854.28;5014070;28;839;-70
2021/09/25 02:33:39;;;;;;;;;;;;;;;19.95;50.36;100859.78;4996066;28;771;-70
2021/09/25 02:36:05;;;;;;;;;;;;;;;19.95;50.53;100859.78;5013764;28;1115;-69
2021/09/25 02:38:30;;;;;;;;;;;;;;;19.86;50.97;100856.06;5013471;28;1128;-69
2021/09/25 02:40:56;;;;;;;;;;;;;;;19.95;50.65;100860.63;5014337;28;804;-69
2021/09/25 02:43:21;;;;;;;;;;;;;;;19.73;51.19;100854.81;5014070;28;784;-70
2021/09/25 02:45:47;;;;;;;;;;;;;;;19.87;50.77;100860.47;5013587;28;1906;-69
2021/09/25 02:48:12;;;;;;;;;;;;;;;19.95;50.52;100860.63;5014316;28;835;-69
2021/09/25 02:50:38;;;;;;;;;;;;;;;20.13;49.99;100864.56;5015726;28;1451;-69
2021/09/25 02:53:03;;;;;;;;;;;;;;;20.10;50.08;100867.88;5017117;28;1113;-69
2021/09/25 02:55:29;;;;;;;;;;;;;;;20.03;50.19;100874.91;5017357;28;1327;-69
2021/09/25 02:57:54;;;;;;;;;;;;;;;19.97;50.38;100879.66;5016796;28;800;-69
2021/09/25 03:00:20;;;;;;;;;;;;;;;19.99;50.36;100886.53;5016436;28;1335;-69
2021/09/25 03:02:46;;;;;;;;;;;;;;;19.98;50.25;100892.34;5017540;28;800;-69
2021/09/25 03:05:11;;;;;;;;;;;;;;;20.01;50.43;100889.00;5016875;28;800;-69
2021/09/25 03:07:37;;;;;;;;;;;;;;;19.97;50.30;100901.75;5029696;28;1902;-69
2021/09/25 03:10:03;;;;;;;;;;;;;;;19.93;50.55;100897.94;5029570;28;1417;-69
2021/09/25 03:12:29;;;;;;;;;;;;;;;19.94;50.47;100911.44;5031851;28;1052;-69
2021/09/25 03:14:54;;;;;;;;;;;;;;;19.96;50.44;100922.16;5036841;28;884;-70
2021/09/25 03:17:19;;;;;;;;;;;;;;;20.13;50.08;100924.47;5036983;28;878;-69
2021/09/25 03:19:46;;;;;;;;;;;;;;;20.00;50.63;100928.75;5035884;28;1421;-63
2021/09/25 03:22:12;;;;;;;;;;;;;;;19.93;50.54;100925.53;5026009;28;1035;-66
2021/09/25 03:24:37;;;;;;;;;;;;;;;19.86;50.85;100928.63;5036549;28;840;-67
2021/09/25 03:27:03;;;;;;;;;;;;;;;19.86;50.91;100936.91;5036319;28;1979;-66
2021/09/25 03:29:28;;;;;;;;;;;;;;;19.77;51.11;100936.69;5037076;28;804;-64
2021/09/25 03:31:54;;;;;;;;;;;;;;;19.98;50.57;100944.78;5036875;28;855;-64
2021/09/25 03:34:20;;;;;;;;;;;;;;;19.80;51.24;100946.34;5016598;28;1465;-64
2021/09/25 03:36:45;;;;;;;;;;;;;;;19.93;50.78;100950.34;5022262;28;1135;-64
2021/09/25 03:39:10;;;;;;;;;;;;;;;19.86;51.10;100944.38;5036287;28;774;-66
2021/09/25 03:41:36;;;;;;;;;;;;;;;19.73;51.44;100941.13;5035901;28;891;-65
2021/09/25 03:44:01;;;;;;;;;;;;;;;19.89;51.00;100950.09;5030177;28;1322;-65
2021/09/25 03:46:27;;;;;;;;;;;;;;;19.91;50.79;100964.44;5016461;28;1973;-64
2021/09/25 03:48:52;;;;;;;;;;;;;;;19.89;50.96;100963.09;5016089;28;745;-63
2021/09/25 03:51:18;;;;;;;;;;;;;;;19.87;50.91;100968.91;5015914;28;1059;-62
2021/09/25 03:53:43;;;;;;;;;;;;;;;19.78;51.29;100968.69;5016376;28;1331;-64
2021/09/25 03:56:08;;;;;;;;;;;;;;;19.69;51.50;100972.38;5015813;28;808;-65
2021/09/25 03:58:37;;;;;;;;;;;;;;;19.81;51.21;100973.66;5016362;28;752;-66
2021/09/25 04:01:03;;;;;;;;;;;;;;;19.72;51.44;100983.63;5016194;28;891;-66
2021/09/25 04:03:28;;;;;;;;;;;;;;;19.81;51.21;100987.44;5015729;28;1370;-67
2021/09/25 04:05:55;;;;;;;;;;;;;;;19.93;50.88;100994.50;5016636;28;1902;-66
2021/09/25 04:08:20;;;;;;;;;;;;;;;20.00;50.79;101000.50;5035480;28;1058;-73
2021/09/25 04:10:46;;;;;;;;;;;;;;;19.86;50.99;101000.38;5035673;28;1090;-66
2021/09/25 04:13:11;;;;;;;;;;;;;;;19.92;50.80;100998.38;5020176;28;1710;-65
2021/09/25 04:15:37;;;;;;;;;;;;;;;19.91;50.86;101007.75;5016179;28;953;-68
2021/09/25 04:18:02;;;;;;;;;;;;;;;19.92;50.96;101003.91;5015975;28;744;-63
2021/09/25 04:20:28;;;;;;;;;;;;;;;19.70;51.66;101009.84;4998415;28;1270;-64
2021/09/25 04:22:53;;;;;;;;;;;;;;;19.86;51.28;101008.66;5027199;28;1597;-67
2021/09/25 04:25:19;;;;;;;;;;;;;;;19.76;51.62;101011.47;5006886;28;2038;-67
2021/09/25 04:27:49;;;;;;;;;;;;;;;19.76;51.49;101026.09;5026901;28;2005;-66
2021/09/25 04:30:14;;;;;;;;;;;;;;;19.82;51.15;101022.22;5016282;28;1491;-66
2021/09/25 04:32:40;;;;;;;;;;;;;;;19.77;51.35;101030.50;5015198;28;1481;-67
2021/09/25 04:35:05;;;;;;;;;;;;;;;19.79;51.21;101039.31;5021895;28;1233;-65
2021/09/25 04:37:30;;;;;;;;;;;;;;;19.83;51.24;101034.88;5014972;28;1475;-67
2021/09/25 04:39:56;;;;;;;;;;;;;;;19.84;51.24;101035.72;5015351;28;1451;-69
2021/09/25 04:42:21;;;;;;;;;;;;;;;19.99;50.91;101037.50;5014204;28;1675;-69
2021/09/25 04:44:47;;;;;;;;;;;;;;;19.84;51.23;101038.47;5014737;28;1360;-69
2021/09/25 04:47:12;;;;;;;;;;;;;;;19.95;51.19;101041.94;5015190;28;1977;-68
2021/09/25 04:49:38;;;;;;;;;;;;;;;19.89;51.31;101046.69;5015894;28;1279;-67
2021/09/25 04:52:03;;;;;;;;;;;;;;;19.85;51.37;101048.38;5016388;28;1592;-65
2021/09/25 04:54:29;;;;;;;;;;;;;;;19.87;51.31;101061.94;5015124;28;1672;-65
2021/09/25 04:56:54;;;;;;;;;;;;;;;20.04;50.99;101055.97;5014868;28;1423;-67
2021/09/25 04:59:19;;;;;;;;;;;;;;;19.87;51.45;101061.94;5014968;28;1359;-67
2021/09/25 05:01:45;;;;;;;;;;;;;;;20.03;50.99;101062.59;5014851;28;1399;-66
2021/09/25 05:04:10;;;;;;;;;;;;;;;20.04;50.73;101061.50;5014381;28;1554;-65
2021/09/25 05:06:36;;;;;;;;;;;;;;;19.78;51.57;101076.31;5013306;28;1918;-67
2021/09/25 05:09:01;;;;;;;;;;;;;;;19.97;51.04;101067.34;5014646;28;1478;-65
2021/09/25 05:11:27;;;;;;;;;;;;;;;20.02;50.92;101070.06;5014101;28;1565;-67
2021/09/25 05:13:52;;;;;;;;;;;;;;;19.97;51.18;101079.19;5014240;28;1263;-66
2021/09/25 05:16:18;;;;;;;;;;;;;;;19.94;51.12;101076.22;5013528;28;1561;-67
2021/09/25 05:18:43;;;;;;;;;;;;;;;19.91;51.28;101076.75;5013658;28;1185;-66
2021/09/25 05:21:09;;;;;;;;;;;;;;;20.00;51.09;101086.91;5014261;28;1322;-68
2021/09/25 05:23:35;;;;;;;;;;;;;;;19.89;51.31;101098.31;5014411;28;1331;-67
2021/09/25 05:26:00;;;;;;;;;;;;;;;20.00;51.16;101097.13;5014455;28;1906;-68
2021/09/25 05:28:26;;;;;;;;;;;;;;;19.99;51.11;101104.59;5014401;28;1641;-68
2021/09/25 05:30:52;;;;;;;;;;;;;;;19.82;51.41;101105.00;5014472;28;1391;-66
2021/09/25 05:33:17;;;;;;;;;;;;;;;19.89;51.42;101099.13;5013663;28;1457;-66
2021/09/25 05:35:42;;;;;;;;;;;;;;;20.18;50.65;101115.72;5014306;28;1618;-69
2021/09/25 05:38:08;;;;;;;;;;;;;;;19.92;51.05;101106.88;5014150;28;1396;-65
2021/09/25 05:40:33;;;;;;;;;;;;;;;19.83;51.53;101106.63;5004063;28;1482;-66
2021/09/25 05:42:59;;;;;;;;;;;;;;;19.95;51.24;101119.22;5004925;28;1527;-65
2021/09/25 05:45:24;;;;;;;;;;;;;;;19.86;51.37;101126.50;5002994;28;1413;-64
2021/09/25 05:47:50;;;;;;;;;;;;;;;19.96;51.13;101126.41;4999860;28;1906;-64
2021/09/25 05:50:15;;;;;;;;;;;;;;;19.93;51.34;101130.56;4999429;28;1500;-65
2021/09/25 05:52:41;;;;;;;;;;;;;;;20.00;51.09;101133.81;5010555;28;1425;-69
2021/09/25 05:55:07;;;;;;;;;;;;;;;19.81;51.48;101141.97;4997980;28;1373;-65
2021/09/25 05:57:32;;;;;;;;;;;;;;;19.86;51.36;101145.81;4978331;28;1656;-61
2021/09/25 05:59:57;;;;;;;;;;;;;;;19.88;51.30;101141.66;5002712;28;1529;-66
2021/09/25 06:02:23;;;;;;;;;;;;;;;19.91;51.14;101140.25;5003209;28;1241;-68
2021/09/25 06:04:48;;;;;;;;;;;;;;;19.97;51.19;101148.19;5012698;28;1397;-65
2021/09/25 06:07:15;;;;;;;;;;;;;;;19.86;51.27;101148.56;5010436;28;1898;-67
2021/09/25 06:09:41;;;;;;;;;;;;;;;19.99;51.25;101153.44;5013634;28;1360;-68
2021/09/25 06:12:07;;;;;;;;;;;;;;;20.07;50.85;101158.34;5005066;28;1608;-68
2021/09/25 06:14:32;;;;;;;;;;;;;;;20.07;50.95;101161.09;4999018;28;1705;-67
2021/09/25 06:16:58;;;;;;;;;;;;;;;20.02;51.00;101163.06;5008183;28;1459;-68
2021/09/25 06:19:23;;;;;;;;;;;;;;;20.06;51.00;101170.50;5013488;28;1302;-68
2021/09/25 06:21:49;;;;;;;;;;;;;;;19.96;51.08;101168.66;5009352;28;1503;-69
2021/09/25 06:24:14;;;;;;;;;;;;;;;19.95;51.11;101169.75;5012915;28;1327;-68
2021/09/25 06:26:40;;;;;;;;;;;;;;;20.11;50.80;101177.94;5015483;28;1981;-66
2021/09/25 06:29:05;;;;;;;;;;;;;;;19.93;51.46;101182.19;5016912;28;1451;-67
2021/09/25 06:31:31;;;;;;;;;;;;;;;20.02;51.04;101177.72;5015923;28;1359;-66
2021/09/25 06:33:56;;;;;;;;;;;;;;;20.01;51.03;101187.09;5017390;28;1524;-66
2021/09/25 06:36:22;;;;;;;;;;;;;;;19.93;51.46;101180.25;5017283;28;1301;-68
2021/09/25 06:38:47;;;;;;;;;;;;;;;20.07;51.10;101185.94;5013937;28;1255;-66
2021/09/25 06:41:13;;;;;;;;;;;;;;;20.15;50.79;101190.03;5017619;28;1308;-68
2021/09/25 06:43:38;;;;;;;;;;;;;;;20.09;50.97;101186.50;5007247;28;1260;-66
2021/09/25 06:46:04;;;;;;;;;;;;;;;20.02;51.18;101196.19;5008245;28;1914;-59
2021/09/25 06:48:29;;;;;;;;;;;;;;;19.93;51.35;101199.56;5006742;28;1362;-59
2021/09/25 06:50:54;;;;;;;;;;;;;;;20.10;50.91;101209.41;5007314;28;1501;-60
2021/09/25 06:53:20;;;;;;;;;;;;;;;20.19;50.67;101196.63;5016313;28;1236;-61
2021/09/25 06:55:45;;;;;;;;;;;;;;;20.13;50.83;101201.38;5017146;28;1496;-62
2021/09/25 06:58:10;;;;;;;;;;;;;;;20.30;50.51;101213.94;5017061;28;1284;-60
2021/09/25 07:00:36;;;;;;;;;;;;;;;20.00;51.16;101215.81;5016370;28;1355;-60
2021/09/25 07:03:01;;;;;;;;;;;;;;;20.07;51.04;101223.78;5016451;28;1380;-58
2021/09/25 07:05:27;;;;;;;;;;;;;;;20.13;51.05;101223.47;5016866;28;1252;-60
2021/09/25 07:07:53;;;;;;;;;;;;;;;20.13;50.78;101226.22;5014773;28;1995;-59
2021/09/25 07:10:18;;;;;;;;;;;;;;;20.04;51.28;101230.69;5017327;28;1611;-61
2021/09/25 07:12:44;;;;;;;;;;;;;;;19.93;51.40;101227.16;5017937;28;1442;-59
2021/09/25 07:15:09;;;;;;;;;;;;;;;19.97;51.19;101239.28;5016145;28;1208;-60
2021/09/25 07:17:35;;;;;;;;;;;;;;;20.07;50.93;101235.63;5004984;28;1245;-60
2021/09/25 07:20:00;;;;;;;;;;;;;;;20.01;51.27;101234.03;5007405;28;1384;-60
2021/09/25 07:22:26;;;;;;;;;;;;;;;20.03;51.36;101234.56;5008215;28;1274;-60
2021/09/25 07:24:54;;;;;;;;;;;;;;;19.98;51.26;101248.41;5015720;28;1465;-60
2021/09/25 07:27:23;;;;;;;;;;;;;;;20.05;51.33;101246.16;5016902;28;1901;-61
2021/09/25 07:29:49;;;;;;;;;;;;;;;20.16;50.84;101244.97;5016412;28;752;-61
2021/09/25 07:32:14;;;;;;;;;;;;;;;20.12;50.87;101254.13;5016258;28;1298;-60
2021/09/25 07:34:40;;;;;;;;;;;;;;;20.06;51.26;101255.25;5016810;28;803;-61
2021/09/25 07:37:05;;;;;;;;;;;;;;;20.21;50.67;101255.16;5024700;28;1079;-60
2021/09/25 07:39:32;;;;;;;;;;;;;;;20.20;50.80;101256.25;5035698;28;1208;-59
2021/09/25 07:41:58;;;;;;;;;;;;;;;20.15;50.93;101257.13;5036157;28;1118;-60
2021/09/25 07:44:23;;;;;;;;;;;;;;;20.06;51.21;101258.00;5036280;28;776;-61
2021/09/25 07:46:49;;;;;;;;;;;;;;;20.21;50.88;101259.84;5036083;28;1973;-60
2021/09/25 07:49:14;;;;;;;;;;;;;;;20.07;51.29;101263.25;5027601;28;2068;-60
2021/09/25 07:51:40;;;;;;;;;;;;;;;20.08;51.17;101264.09;5015915;28;1117;-60
2021/09/25 07:54:06;;;;;;;;;;;;;;;20.08;51.14;101269.59;5015959;28;800;-60
2021/09/25 07:56:32;;;;;;;;;;;;;;;20.13;51.11;101262.13;5015997;28;856;-60
2021/09/25 07:58:57;;;;;;;;;;;;;;;20.16;50.92;101272.59;5016182;28;777;-61
2021/09/25 08:01:23;;;;;;;;;;;;;;;20.21;50.75;101265.38;5015927;28;781;-62
2021/09/25 08:03:48;;;;;;;;;;;;;;;20.19;51.00;101273.97;5015826;28;859;-59
2021/09/25 08:06:14;;;;;;;;;;;;;;;20.31;50.67;101273.59;5015497;28;1902;-60
2021/09/25 08:08:39;;;;;;;;;;;;;;;20.26;50.58;101274.47;5015809;28;741;-60
2021/09/25 08:11:05;;;;;;;;;;;;;;;20.27;50.76;101283.56;5006902;28;1830;-60
2021/09/25 08:13:30;;;;;;;;;;;;;;;20.20;50.86;101278.34;5006212;28;1558;-60
2021/09/25 08:15:56;;;;;;;;;;;;;;;20.28;50.64;101274.97;5015634;28;1553;-60
2021/09/25 08:18:21;;;;;;;;;;;;;;;20.22;50.74;101280.84;5015007;28;1549;-59
2021/09/25 08:20:46;;;;;;;;;;;;;;;20.12;50.86;101282.53;5014879;28;1520;-60
2021/09/25 08:23:12;;;;;;;;;;;;;;;20.21;50.67;101281.94;5032742;28;1028;-60
2021/09/25 08:25:37;;;;;;;;;;;;;;;20.22;50.94;101283.59;5035612;28;768;-61
2021/09/25 08:28:03;;;;;;;;;;;;;;;20.00;51.29;101290.34;5034933;28;1906;-61
2021/09/25 08:30:28;;;;;;;;;;;;;;;19.75;51.95;101285.75;5035049;28;748;-61
2021/09/25 08:32:54;;;;;;;;;;;;;;;19.49;52.12;101286.66;5017430;28;855;-61
2021/09/25 08:35:21;;;;;;;;;;;;;;;19.34;52.36;101288.66;5030061;28;1753;-60
2021/09/25 08:37:47;;;;;;;;;;;;;;;19.27;52.37;101291.69;5014224;28;1336;-61
2021/09/25 08:40:13;;;;;;;;;;;;;;;19.23;52.13;101279.56;5015580;28;788;-61
2021/09/25 08:42:38;;;;;;;;;;;;;;;19.14;52.19;101285.66;5015705;28;812;-61
2021/09/25 08:45:04;;;;;;;;;;;;;;;19.11;52.24;101282.63;5014344;28;2068;-59
2021/09/25 08:47:29;;;;;;;;;;;;;;;19.04;52.62;101296.72;5014205;28;1992;-59
2021/09/25 08:49:55;;;;;;;;;;;;;;;19.36;53.17;101290.00;5015105;28;1598;-62
2021/09/25 08:52:20;;;;;;;;;;;;;;;19.82;52.18;101289.06;5014614;28;1611;-63
2021/09/25 08:54:46;;;;;;;;;;;;;;;20.25;51.06;101289.38;5015548;28;1556;-63
2021/09/25 08:57:11;;;;;;;;;;;;;;;20.23;50.81;101294.38;5013194;28;1494;-60
2021/09/25 08:59:37;;;;;;;;;;;;;;;20.50;50.35;101298.59;5014745;28;1530;-60
2021/09/25 09:02:09;;;;;;;;;;;;;;;20.73;49.50;101297.03;5014951;28;1467;-62
2021/09/25 09:04:49;;;;;;;;;;;;;;;20.47;50.03;101294.47;5015110;28;1475;-60
2021/09/25 09:07:18;;;;;;;;;;;;;;;20.07;50.81;101293.63;5009620;28;1906;-60
2021/09/25 09:09:44;;;;;;;;;;;;;;;19.44;51.68;101296.91;5015087;28;1469;-61
2021/09/25 09:12:10;;;;;;;;;;;;;;;19.13;50.86;101295.03;5014135;28;1005;-61
2021/09/25 09:14:45;;;;;;;;;;;;;;;18.75;50.32;101297.25;5014751;28;1212;-62
2021/09/25 09:17:14;;;;;;;;;;;;;;;18.61;49.60;101302.47;5015139;28;1374;-60
2021/09/25 09:19:39;;;;;;;;;;;;;;;18.44;51.02;101297.22;5015116;28;1275;-62
2021/09/25 09:22:05;;;;;;;;;;;;;;;18.95;52.88;101295.59;5014272;28;1643;-62
2021/09/25 09:24:40;;;;;;;;;;;;;;;19.39;53.61;101303.25;5014816;28;1438;-61
2021/09/25 09:27:18;;;;;;;;;;;;;;;19.66;53.70;101299.31;5014599;28;1902;-61
2021/09/25 09:29:44;;;;;;;;;;;;;;;19.99;52.24;101285.94;5014506;28;812;-61
2021/09/25 09:32:11;;;;;;;;;;;;;;;20.33;51.39;101290.72;5014257;28;1453;-62
2021/09/25 09:34:37;;;;;;;;;;;;;;;20.54;50.66;101293.31;5014577;28;1531;-61
2021/09/25 09:37:12;;;;;;;;;;;;;;;20.55;50.54;101289.44;5013660;28;1414;-63
2021/09/25 09:39:38;;;;;;;;;;;;;;;20.63;50.41;101297.91;5014283;28;998;-62
2021/09/25 09:42:03;;;;;;;;;;;;;;;20.38;50.77;101296.19;5014191;28;1516;-61
2021/09/25 09:44:29;;;;;;;;;;;;;;;19.81;51.64;101299.28;4998183;28;1604;-62
2021/09/25 09:46:54;;;;;;;;;;;;;;;19.35;51.79;101298.56;5011726;28;1906;-62
2021/09/25 09:49:21;;;;;;;;;;;;;;;18.91;51.24;101305.53;5014598;28;1610;-62
2021/09/25 09:52:02;;;;;;;;;;;;;;;18.70;50.54;101305.50;5013450;28;1197;-62
2021/09/25 09:54:27;;;;;;;;;;;;;;;18.58;49.84;101296.66;5014599;28;1728;-62
2021/09/25 09:56:54;;;;;;;;;;;;;;;18.71;51.06;101300.81;5014475;28;1217;-62
2021/09/25 09:59:20;;;;;;;;;;;;;;;18.94;52.48;101304.97;5016194;28;1045;-62
2021/09/25 10:01:45;;;;;;;;;;;;;;;19.07;53.67;101298.91;5018232;28;1464;-62
2021/09/25 10:04:11;;;;;;;;;;;;;;;19.35;53.86;101299.41;5018228;28;1442;-63
2021/09/25 10:06:36;;;;;;;;;;;;;;;19.49;53.99;101297.69;5017536;28;1918;-61
2021/09/25 10:09:06;;;;;;;;;;;;;;;19.58;53.90;101302.66;5017947;28;1576;-61
2021/09/25 10:11:31;;;;;;;;;;;;;;;19.63;53.37;101294.34;5018035;28;1472;-61
2021/09/25 10:13:57;;;;;;;;;;;;;;;19.73;53.13;101299.81;5018406;28;2086;-61
2021/09/25 10:16:22;;;;;;;;;;;;;;;19.80;52.69;101308.66;5018041;28;1620;-61
2021/09/25 10:18:47;;;;;;;;;;;;;;;19.76;52.58;101310.28;5010159;28;1476;-61
2021/09/25 10:21:13;;;;;;;;;;;;;;;19.75;52.61;101300.34;5017648;28;1648;-61
2021/09/25 10:23:45;;;;;;;;;;;;;;;20.00;52.00;101290.34;5018128;28;1450;-61
2021/09/25 10:26:10;;;;;;;;;;;;;;;19.88;52.32;101296.22;5005068;28;1910;-61
2021/09/25 10:28:35;;;;;;;;;;;;;;;19.83;52.55;101286.00;5009642;28;1622;-61
2021/09/25 10:31:01;;;;;;;;;;;;;;;19.80;52.30;101294.84;5018334;28;1646;-61
2021/09/25 10:33:26;;;;;;;;;;;;;;;20.06;51.71;101293.91;5018067;28;1716;-61
2021/09/25 10:35:53;;;;;;;;;;;;;;;20.03;51.83;101294.47;5017375;28;1533;-61
2021/09/25 10:38:39;;;;;;;;;;;;;;;19.95;51.79;101290.34;5016151;28;1066;-61
2021/09/25 10:41:18;;;;;;;;;;;;;;;20.03;51.67;101289.75;5017335;28;1454;-61
2021/09/25 10:43:44;;;;;;;;;;;;;;;20.08;51.70;101295.28;5016926;28;1554;-62
2021/09/25 10:46:10;;;;;;;;;;;;;;;20.14;51.50;101294.13;5017418;28;1934;-61
2021/09/25 10:48:36;;;;;;;;;;;;;;;20.24;51.15;101297.94;5017662;28;1525;-61
2021/09/25 10:51:08;;;;;;;;;;;;;;;20.14;51.15;101288.59;5010526;28;1472;-60
2021/09/25 10:53:37;;;;;;;;;;;;;;;20.18;51.17;101291.63;5016913;28;1078;-60
2021/09/25 10:56:15;;;;;;;;;;;;;;;20.28;50.86;101279.69;5016867;28;1445;-61
2021/09/25 10:58:41;;;;;;;;;;;;;;;20.36;50.62;101295.66;5010990;28;1432;-61
2021/09/25 11:01:09;;;;;;;;;;;;;;;20.35;50.77;101294.00;5017007;28;1528;-60
2021/09/25 11:03:54;;;;;;;;;;;;;;;20.07;51.67;101290.84;5010669;28;1217;-59
2021/09/25 11:06:26;;;;;;;;;;;;;;;20.12;51.39;101293.59;5016269;28;1965;-61
2021/09/25 11:08:52;;;;;;;;;;;;;;;20.02;51.68;101282.63;5017308;28;1468;-60
2021/09/25 11:11:18;;;;;;;;;;;;;;;20.25;51.23;101289.38;5016056;28;1677;-60
2021/09/25 11:14:03;;;;;;;;;;;;;;;20.12;51.56;101285.31;5016743;28;1438;-60
2021/09/25 11:16:47;;;;;;;;;;;;;;;20.20;51.35;101277.53;5019541;28;1463;-60
2021/09/25 11:19:21;;;;;;;;;;;;;;;19.98;51.92;101276.00;5010650;28;1220;-60
2021/09/25 11:21:51;;;;;;;;;;;;;;;20.12;51.47;101276.22;5015219;28;1604;-60
2021/09/25 11:24:16;;;;;;;;;;;;;;;20.04;51.64;101277.63;5017060;28;1501;-60
2021/09/25 11:26:42;;;;;;;;;;;;;;;19.89;52.08;101274.94;5016856;28;1914;-61
2021/09/25 11:29:07;;;;;;;;;;;;;;;19.86;52.18;101272.75;5016669;28;1254;-61
2021/09/25 11:31:33;;;;;;;;;;;;;;;19.87;52.24;101271.66;5017136;28;1636;-56
2021/09/25 11:33:58;;;;;;;;;;;;;;;19.91;52.14;101270.81;5016117;28;1440;-59
2021/09/25 11:36:25;;;;;;;;;;;;;;;19.91;52.08;101275.47;5009693;28;1466;-59
2021/09/25 11:38:50;;;;;;;;;;;;;;;20.14;51.47;101282.25;5016541;28;1487;-59
2021/09/25 11:41:16;;;;;;;;;;;;;;;20.00;51.63;101276.53;5016538;28;1550;-59
2021/09/25 11:43:41;;;;;;;;;;;;;;;19.82;52.28;101284.38;5015974;28;1437;-61
2021/09/25 11:46:07;;;;;;;;;;;;;;;20.08;51.58;101284.22;5016065;28;2001;-60
2021/09/25 11:48:34;;;;;;;;;;;;;;;20.07;51.92;101284.50;4998803;28;1484;-59
2021/09/25 11:51:02;;;;;;;;;;;;;;;19.88;52.30;101278.81;5015877;28;1453;-59
2021/09/25 11:53:28;;;;;;;;;;;;;;;19.95;51.95;101279.31;5014578;28;1067;-60
2021/09/25 11:55:53;;;;;;;;;;;;;;;19.89;52.11;101269.44;5016359;28;1442;-60
2021/09/25 11:58:21;;;;;;;;;;;;;;;20.00;52.03;101266.31;5015935;28;1441;-60
2021/09/25 12:00:50;;;;;;;;;;;;;;;19.98;52.20;101263.03;5016266;28;1482;-59
2021/09/25 12:03:17;;;;;;;;;;;;;;;20.04;51.81;101269.34;5016096;28;1418;-61
2021/09/25 12:05:49;;;;;;;;;;;;;;;20.02;51.92;101263.28;5015934;28;1236;-60
2021/09/25 12:08:17;;;;;;;;;;;;;;;20.18;51.43;101267.59;5015708;28;1690;-60
2021/09/25 12:10:46;;;;;;;;;;;;;;;19.98;52.26;101270.50;5015710;28;1506;-60
2021/09/25 12:13:12;;;;;;;;;;;;;;;19.97;52.34;101260.56;5015440;28;1479;-60
2021/09/25 12:15:38;;;;;;;;;;;;;;;20.02;52.33;101266.06;5016211;28;1269;-60
2021/09/25 12:18:15;;;;;;;;;;;;;;;20.01;52.11;101269.91;5015627;28;1442;-60
2021/09/25 12:20:45;;;;;;;;;;;;;;;19.92;52.34;101258.66;5015615;28;1482;-59
2021/09/25 12:23:11;;;;;;;;;;;;;;;20.04;52.12;101261.06;5015051;28;1294;-59
2021/09/25 12:25:37;;;;;;;;;;;;;;;19.87;52.46;101258.69;5015776;28;1448;-60
2021/09/25 12:28:02;;;;;;;;;;;;;;;20.06;51.91;101264.34;5015288;28;1964;-60
2021/09/25 12:30:28;;;;;;;;;;;;;;;20.08;51.96;101262.16;4995448;28;1650;-60
2021/09/25 12:33:00;;;;;;;;;;;;;;;20.09;52.03;101269.31;5014736;28;1511;-60
2021/09/25 12:35:25;;;;;;;;;;;;;;;20.10;51.91;101259.91;5015326;28;1215;-59
2021/09/25 12:37:50;;;;;;;;;;;;;;;20.17;51.74;101265.13;5014744;28;1089;-59
2021/09/25 12:40:16;;;;;;;;;;;;;;;20.13;51.82;101262.13;5015524;28;1099;-59
2021/09/25 12:42:42;;;;;;;;;;;;;;;19.99;52.49;101263.84;5014923;28;1511;-59